sensor_id;sensor_type;location;lat;lon;timestamp;temperature;humidity
38910;DHT22;24676;51.360;12.354;2024-01-30T00:02:00;3.80;99.90
38910;DHT22;24676;51.360;12.354;2024-01-30T00:04:45;3.80;99.90
38910;DHT22;24676;51.360;12.354;2024-01-30T00:07:29;3.80;99.90
38910;DHT22;24676;51.360;12.354;2024-01-30T00:10:13;3.70;99.90
38910;DHT22;24676;51.360;12.354;2024-01-30T00:12:57;3.70;99.90
38910;DHT22;24676;51.360;12.354;2024-01-30T00:15:41;3.60;99.90
38910;DHT22;24676;51.360;12.354;2024-01-30T00:18:25;3.50;99.90
38910;DHT22;24676;51.360;12.354;2024-01-30T00:21:09;3.50;99.90
38910;DHT22;24676;51.360;12.354;2024-01-30T00:23:54;3.40;99.90
38910;DHT22;24676;51.360;12.354;2024-01-30T00:26:38;3.40;99.90
38910;DHT22;24676;51.360;12.354;2024-01-30T00:29:22;3.30;99.90
38910;DHT22;24676;51.360;12.354;2024-01-30T00:32:06;3.30;99.90
38910;DHT22;24676;51.360;12.354;2024-01-30T00:34:50;3.30;99.90
38910;DHT22;24676;51.360;12.354;2024-01-30T00:37:35;3.30;99.90
38910;DHT22;24676;51.360;12.354;2024-01-30T00:40:19;3.40;99.90
38910;DHT22;24676;51.360;12.354;2024-01-30T00:43:04;3.40;99.90
38910;DHT22;24676;51.360;12.354;2024-01-30T00:45:48;3.50;99.90
38910;DHT22;24676;51.360;12.354;2024-01-30T00:48:32;3.50;99.90
38910;DHT22;24676;51.360;12.354;2024-01-30T00:51:16;3.60;99.90
38910;DHT22;24676;51.360;12.354;2024-01-30T00:54:00;3.60;99.90
38910;DHT22;24676;51.360;12.354;2024-01-30T00:56:45;3.70;99.90
38910;DHT22;24676;51.360;12.354;2024-01-30T00:59:29;3.80;99.90
38910;DHT22;24676;51.360;12.354;2024-01-30T01:02:13;3.90;99.90
38910;DHT22;24676;51.360;12.354;2024-01-30T01:04:59;4.10;99.90
38910;DHT22;24676;51.360;12.354;2024-01-30T01:07:43;4.10;99.90
38910;DHT22;24676;51.360;12.354;2024-01-30T01:10:27;4.20;99.90
38910;DHT22;24676;51.360;12.354;2024-01-30T01:13:12;4.30;99.90
38910;DHT22;24676;51.360;12.354;2024-01-30T01:15:56;4.30;99.90
38910;DHT22;24676;51.360;12.354;2024-01-30T01:18:40;4.40;99.90
38910;DHT22;24676;51.360;12.354;2024-01-30T01:21:24;4.50;99.90
38910;DHT22;24676;51.360;12.354;2024-01-30T01:24:08;4.50;99.90
38910;DHT22;24676;51.360;12.354;2024-01-30T01:26:52;4.50;99.90
38910;DHT22;24676;51.360;12.354;2024-01-30T01:29:37;4.50;99.90
38910;DHT22;24676;51.360;12.354;2024-01-30T01:32:21;4.50;99.90
38910;DHT22;24676;51.360;12.354;2024-01-30T01:35:06;4.60;99.90
38910;DHT22;24676;51.360;12.354;2024-01-30T01:37:50;4.60;99.90
38910;DHT22;24676;51.360;12.354;2024-01-30T01:40:42;4.60;99.90
38910;DHT22;24676;51.360;12.354;2024-01-30T01:43:27;4.60;99.90
38910;DHT22;24676;51.360;12.354;2024-01-30T01:46:11;4.60;99.90
38910;DHT22;24676;51.360;12.354;2024-01-30T01:48:56;4.60;99.90
38910;DHT22;24676;51.360;12.354;2024-01-30T01:51:40;4.60;99.90
38910;DHT22;24676;51.360;12.354;2024-01-30T01:54:25;4.70;99.90
38910;DHT22;24676;51.360;12.354;2024-01-30T01:57:10;4.60;99.90
38910;DHT22;24676;51.360;12.354;2024-01-30T01:59:54;4.60;99.90
38910;DHT22;24676;51.360;12.354;2024-01-30T02:02:38;4.60;99.90
38910;DHT22;24676;51.360;12.354;2024-01-30T02:05:22;4.60;99.90
38910;DHT22;24676;51.360;12.354;2024-01-30T02:08:08;4.50;99.90
38910;DHT22;24676;51.360;12.354;2024-01-30T02:10:52;4.50;99.90
38910;DHT22;24676;51.360;12.354;2024-01-30T02:13:37;4.50;99.90
38910;DHT22;24676;51.360;12.354;2024-01-30T02:16:21;4.50;99.90
38910;DHT22;24676;51.360;12.354;2024-01-30T02:19:05;4.50;99.90
38910;DHT22;24676;51.360;12.354;2024-01-30T02:21:50;4.50;99.90
38910;DHT22;24676;51.360;12.354;2024-01-30T02:24:34;4.50;99.90
38910;DHT22;24676;51.360;12.354;2024-01-30T02:27:18;4.50;99.90
38910;DHT22;24676;51.360;12.354;2024-01-30T02:30:03;4.50;99.90
38910;DHT22;24676;51.360;12.354;2024-01-30T02:32:47;4.50;99.90
38910;DHT22;24676;51.360;12.354;2024-01-30T02:35:31;4.50;99.90
38910;DHT22;24676;51.360;12.354;2024-01-30T02:38:15;4.50;99.90
38910;DHT22;24676;51.360;12.354;2024-01-30T02:40:59;4.50;99.90
38910;DHT22;24676;51.360;12.354;2024-01-30T02:43:43;4.40;99.90
38910;DHT22;24676;51.360;12.354;2024-01-30T02:46:28;4.40;99.90
38910;DHT22;24676;51.360;12.354;2024-01-30T02:49:12;4.40;99.90
38910;DHT22;24676;51.360;12.354;2024-01-30T02:51:56;4.30;99.90
38910;DHT22;24676;51.360;12.354;2024-01-30T02:54:40;4.30;99.90
38910;DHT22;24676;51.360;12.354;2024-01-30T02:57:24;4.30;99.90
38910;DHT22;24676;51.360;12.354;2024-01-30T03:00:09;4.30;99.90
38910;DHT22;24676;51.360;12.354;2024-01-30T03:02:57;4.20;99.90
38910;DHT22;24676;51.360;12.354;2024-01-30T03:05:52;4.20;99.90
38910;DHT22;24676;51.360;12.354;2024-01-30T03:08:36;4.10;99.90
38910;DHT22;24676;51.360;12.354;2024-01-30T03:11:21;4.10;99.90
38910;DHT22;24676;51.360;12.354;2024-01-30T03:14:05;4.00;99.90
38910;DHT22;24676;51.360;12.354;2024-01-30T03:16:49;3.90;99.90
38910;DHT22;24676;51.360;12.354;2024-01-30T03:19:34;3.90;99.90
38910;DHT22;24676;51.360;12.354;2024-01-30T03:22:18;3.90;99.90
38910;DHT22;24676;51.360;12.354;2024-01-30T03:25:02;3.80;99.90
38910;DHT22;24676;51.360;12.354;2024-01-30T03:27:46;3.80;99.90
38910;DHT22;24676;51.360;12.354;2024-01-30T03:30:30;3.80;99.90
38910;DHT22;24676;51.360;12.354;2024-01-30T03:33:14;3.90;99.90
38910;DHT22;24676;51.360;12.354;2024-01-30T03:36:02;3.90;99.90
38910;DHT22;24676;51.360;12.354;2024-01-30T03:38:46;3.90;99.90
38910;DHT22;24676;51.360;12.354;2024-01-30T03:41:30;3.90;99.90
38910;DHT22;24676;51.360;12.354;2024-01-30T03:44:15;3.90;99.90
38910;DHT22;24676;51.360;12.354;2024-01-30T03:46:59;3.90;99.90
38910;DHT22;24676;51.360;12.354;2024-01-30T03:49:43;3.90;99.90
38910;DHT22;24676;51.360;12.354;2024-01-30T03:52:27;3.90;99.90
38910;DHT22;24676;51.360;12.354;2024-01-30T03:55:11;4.00;99.90
38910;DHT22;24676;51.360;12.354;2024-01-30T03:57:56;4.00;99.90
38910;DHT22;24676;51.360;12.354;2024-01-30T04:00:40;4.00;99.90
38910;DHT22;24676;51.360;12.354;2024-01-30T04:03:24;3.90;99.90
38910;DHT22;24676;51.360;12.354;2024-01-30T04:06:09;3.90;99.90
38910;DHT22;24676;51.360;12.354;2024-01-30T04:08:53;3.90;99.90
38910;DHT22;24676;51.360;12.354;2024-01-30T04:11:37;4.00;99.90
38910;DHT22;24676;51.360;12.354;2024-01-30T04:14:21;4.00;99.90
38910;DHT22;24676;51.360;12.354;2024-01-30T04:17:05;4.00;99.90
38910;DHT22;24676;51.360;12.354;2024-01-30T04:19:49;4.00;99.90
38910;DHT22;24676;51.360;12.354;2024-01-30T04:22:37;4.00;99.90
38910;DHT22;24676;51.360;12.354;2024-01-30T04:25:21;4.00;99.90
38910;DHT22;24676;51.360;12.354;2024-01-30T04:28:05;4.00;99.90
38910;DHT22;24676;51.360;12.354;2024-01-30T04:30:49;4.00;99.90
38910;DHT22;24676;51.360;12.354;2024-01-30T04:33:33;4.00;99.90
38910;DHT22;24676;51.360;12.354;2024-01-30T04:36:18;4.10;99.90
38910;DHT22;24676;51.360;12.354;2024-01-30T04:39:02;4.10;99.90
38910;DHT22;24676;51.360;12.354;2024-01-30T04:41:47;4.10;99.90
38910;DHT22;24676;51.360;12.354;2024-01-30T04:44:32;4.10;99.90
38910;DHT22;24676;51.360;12.354;2024-01-30T04:47:16;4.10;99.90
38910;DHT22;24676;51.360;12.354;2024-01-30T04:50:00;4.20;99.90
38910;DHT22;24676;51.360;12.354;2024-01-30T04:52:45;4.20;99.90
38910;DHT22;24676;51.360;12.354;2024-01-30T04:55:29;4.20;99.90
38910;DHT22;24676;51.360;12.354;2024-01-30T04:58:13;4.20;99.90
38910;DHT22;24676;51.360;12.354;2024-01-30T05:00:57;4.10;99.90
38910;DHT22;24676;51.360;12.354;2024-01-30T05:03:41;4.20;99.90
38910;DHT22;24676;51.360;12.354;2024-01-30T05:06:26;4.20;99.90
38910;DHT22;24676;51.360;12.354;2024-01-30T05:09:10;4.20;99.90
38910;DHT22;24676;51.360;12.354;2024-01-30T05:11:55;4.20;99.90
38910;DHT22;24676;51.360;12.354;2024-01-30T05:14:39;4.10;99.90
38910;DHT22;24676;51.360;12.354;2024-01-30T05:17:26;4.10;99.90
38910;DHT22;24676;51.360;12.354;2024-01-30T05:20:11;4.10;99.90
38910;DHT22;24676;51.360;12.354;2024-01-30T05:22:55;4.00;99.90
38910;DHT22;24676;51.360;12.354;2024-01-30T05:25:39;4.00;99.90
38910;DHT22;24676;51.360;12.354;2024-01-30T05:28:23;3.90;99.90
38910;DHT22;24676;51.360;12.354;2024-01-30T05:31:08;3.90;99.90
38910;DHT22;24676;51.360;12.354;2024-01-30T05:33:52;3.90;99.90
38910;DHT22;24676;51.360;12.354;2024-01-30T05:36:36;3.90;99.90
38910;DHT22;24676;51.360;12.354;2024-01-30T05:39:20;3.90;99.90
38910;DHT22;24676;51.360;12.354;2024-01-30T05:42:04;3.90;99.90
38910;DHT22;24676;51.360;12.354;2024-01-30T05:44:48;4.00;99.90
38910;DHT22;24676;51.360;12.354;2024-01-30T05:47:32;4.00;99.90
38910;DHT22;24676;51.360;12.354;2024-01-30T05:50:17;4.00;99.90
38910;DHT22;24676;51.360;12.354;2024-01-30T05:53:01;4.00;99.90
38910;DHT22;24676;51.360;12.354;2024-01-30T05:55:45;4.00;99.90
38910;DHT22;24676;51.360;12.354;2024-01-30T05:58:30;4.10;99.90
38910;DHT22;24676;51.360;12.354;2024-01-30T06:01:17;4.20;99.90
38910;DHT22;24676;51.360;12.354;2024-01-30T06:04:01;4.20;99.90
38910;DHT22;24676;51.360;12.354;2024-01-30T06:06:45;4.20;99.90
38910;DHT22;24676;51.360;12.354;2024-01-30T06:09:30;4.20;99.90
38910;DHT22;24676;51.360;12.354;2024-01-30T06:12:14;4.20;99.90
38910;DHT22;24676;51.360;12.354;2024-01-30T06:14:58;4.10;99.90
38910;DHT22;24676;51.360;12.354;2024-01-30T06:17:42;4.10;99.90
38910;DHT22;24676;51.360;12.354;2024-01-30T06:20:26;4.10;99.90
38910;DHT22;24676;51.360;12.354;2024-01-30T06:23:13;4.10;99.90
38910;DHT22;24676;51.360;12.354;2024-01-30T06:25:58;4.10;99.90
38910;DHT22;24676;51.360;12.354;2024-01-30T06:28:45;4.10;99.90
38910;DHT22;24676;51.360;12.354;2024-01-30T06:31:29;4.10;99.90
38910;DHT22;24676;51.360;12.354;2024-01-30T06:34:13;4.00;99.90
38910;DHT22;24676;51.360;12.354;2024-01-30T06:36:57;4.10;99.90
38910;DHT22;24676;51.360;12.354;2024-01-30T06:39:41;4.00;99.90
38910;DHT22;24676;51.360;12.354;2024-01-30T06:42:26;4.00;99.90
38910;DHT22;24676;51.360;12.354;2024-01-30T06:45:10;4.00;99.90
38910;DHT22;24676;51.360;12.354;2024-01-30T06:47:57;4.00;99.90
38910;DHT22;24676;51.360;12.354;2024-01-30T06:50:41;4.00;99.90
38910;DHT22;24676;51.360;12.354;2024-01-30T06:53:25;4.00;99.90
38910;DHT22;24676;51.360;12.354;2024-01-30T06:56:10;4.10;99.90
38910;DHT22;24676;51.360;12.354;2024-01-30T06:58:55;4.10;99.90
38910;DHT22;24676;51.360;12.354;2024-01-30T07:01:39;4.10;99.90
38910;DHT22;24676;51.360;12.354;2024-01-30T07:04:23;4.20;99.90
38910;DHT22;24676;51.360;12.354;2024-01-30T07:07:07;4.10;99.90
38910;DHT22;24676;51.360;12.354;2024-01-30T07:09:56;4.20;99.90
38910;DHT22;24676;51.360;12.354;2024-01-30T07:12:40;4.20;99.90
38910;DHT22;24676;51.360;12.354;2024-01-30T07:15:24;4.30;99.90
38910;DHT22;24676;51.360;12.354;2024-01-30T07:18:08;4.30;99.90
38910;DHT22;24676;51.360;12.354;2024-01-30T07:20:54;4.40;99.90
38910;DHT22;24676;51.360;12.354;2024-01-30T07:23:38;4.50;99.90
38910;DHT22;24676;51.360;12.354;2024-01-30T07:26:26;4.60;99.90
38910;DHT22;24676;51.360;12.354;2024-01-30T07:29:10;4.70;99.90
38910;DHT22;24676;51.360;12.354;2024-01-30T07:31:54;4.80;99.90
38910;DHT22;24676;51.360;12.354;2024-01-30T07:34:38;4.90;99.90
38910;DHT22;24676;51.360;12.354;2024-01-30T07:37:22;4.90;98.10
38910;DHT22;24676;51.360;12.354;2024-01-30T07:40:06;5.00;97.20
38910;DHT22;24676;51.360;12.354;2024-01-30T07:42:50;5.10;98.60
38910;DHT22;24676;51.360;12.354;2024-01-30T07:45:35;5.20;97.00
38910;DHT22;24676;51.360;12.354;2024-01-30T07:48:19;5.30;96.10
38910;DHT22;24676;51.360;12.354;2024-01-30T07:51:03;5.40;95.20
38910;DHT22;24676;51.360;12.354;2024-01-30T07:53:47;5.60;92.20
38910;DHT22;24676;51.360;12.354;2024-01-30T07:56:32;5.60;90.70
38910;DHT22;24676;51.360;12.354;2024-01-30T07:59:16;5.70;90.90
38910;DHT22;24676;51.360;12.354;2024-01-30T08:02:00;5.90;88.50
38910;DHT22;24676;51.360;12.354;2024-01-30T08:04:45;6.00;87.20
38910;DHT22;24676;51.360;12.354;2024-01-30T08:07:32;6.20;83.40
38910;DHT22;24676;51.360;12.354;2024-01-30T08:10:16;6.50;81.80
38910;DHT22;24676;51.360;12.354;2024-01-30T08:13:02;6.60;78.50
38910;DHT22;24676;51.360;12.354;2024-01-30T08:15:46;6.80;74.70
38910;DHT22;24676;51.360;12.354;2024-01-30T08:18:30;7.00;74.00
38910;DHT22;24676;51.360;12.354;2024-01-30T08:21:15;7.00;72.90
38910;DHT22;24676;51.360;12.354;2024-01-30T08:23:59;7.20;72.50
38910;DHT22;24676;51.360;12.354;2024-01-30T08:26:43;7.20;70.90
38910;DHT22;24676;51.360;12.354;2024-01-30T08:29:27;7.40;70.30
38910;DHT22;24676;51.360;12.354;2024-01-30T08:32:11;7.50;69.60
38910;DHT22;24676;51.360;12.354;2024-01-30T08:34:55;7.60;68.00
38910;DHT22;24676;51.360;12.354;2024-01-30T08:37:40;7.70;67.80
38910;DHT22;24676;51.360;12.354;2024-01-30T08:40:24;7.90;67.40
38910;DHT22;24676;51.360;12.354;2024-01-30T08:43:08;8.10;66.00
38910;DHT22;24676;51.360;12.354;2024-01-30T08:45:54;8.20;65.00
38910;DHT22;24676;51.360;12.354;2024-01-30T08:48:38;8.20;64.80
38910;DHT22;24676;51.360;12.354;2024-01-30T08:51:22;8.30;64.30
38910;DHT22;24676;51.360;12.354;2024-01-30T08:54:07;8.30;64.00
38910;DHT22;24676;51.360;12.354;2024-01-30T08:56:51;8.20;64.30
38910;DHT22;24676;51.360;12.354;2024-01-30T08:59:36;8.30;64.50
38910;DHT22;24676;51.360;12.354;2024-01-30T09:02:21;8.30;64.20
38910;DHT22;24676;51.360;12.354;2024-01-30T09:05:05;8.30;64.60
38910;DHT22;24676;51.360;12.354;2024-01-30T09:07:49;8.30;64.80
38910;DHT22;24676;51.360;12.354;2024-01-30T09:10:33;8.30;64.60
38910;DHT22;24676;51.360;12.354;2024-01-30T09:13:17;8.30;65.30
38910;DHT22;24676;51.360;12.354;2024-01-30T09:16:01;8.30;65.20
38910;DHT22;24676;51.360;12.354;2024-01-30T09:18:45;8.40;65.20
38910;DHT22;24676;51.360;12.354;2024-01-30T09:21:29;8.50;65.10
38910;DHT22;24676;51.360;12.354;2024-01-30T09:24:16;8.70;64.70
38910;DHT22;24676;51.360;12.354;2024-01-30T09:27:00;8.80;64.30
38910;DHT22;24676;51.360;12.354;2024-01-30T09:29:44;8.90;63.70
38910;DHT22;24676;51.360;12.354;2024-01-30T09:32:28;9.00;63.70
38910;DHT22;24676;51.360;12.354;2024-01-30T09:35:12;9.30;62.90
38910;DHT22;24676;51.360;12.354;2024-01-30T09:37:56;9.30;63.40
38910;DHT22;24676;51.360;12.354;2024-01-30T09:40:41;9.40;62.80
38910;DHT22;24676;51.360;12.354;2024-01-30T09:43:26;9.60;62.40
38910;DHT22;24676;51.360;12.354;2024-01-30T09:46:14;9.70;62.30
38910;DHT22;24676;51.360;12.354;2024-01-30T09:49:00;9.90;61.70
38910;DHT22;24676;51.360;12.354;2024-01-30T09:51:45;9.90;61.50
38910;DHT22;24676;51.360;12.354;2024-01-30T09:54:30;10.00;60.90
38910;DHT22;24676;51.360;12.354;2024-01-30T09:57:14;10.00;61.10
38910;DHT22;24676;51.360;12.354;2024-01-30T09:59:58;9.90;61.20
38910;DHT22;24676;51.360;12.354;2024-01-30T10:02:42;9.90;61.60
38910;DHT22;24676;51.360;12.354;2024-01-30T10:05:26;10.00;61.70
38910;DHT22;24676;51.360;12.354;2024-01-30T10:08:11;9.90;62.00
38910;DHT22;24676;51.360;12.354;2024-01-30T10:10:55;10.00;62.30
38910;DHT22;24676;51.360;12.354;2024-01-30T10:13:39;10.20;61.80
38910;DHT22;24676;51.360;12.354;2024-01-30T10:16:23;10.40;61.50
38910;DHT22;24676;51.360;12.354;2024-01-30T10:19:07;10.50;60.70
38910;DHT22;24676;51.360;12.354;2024-01-30T10:21:52;10.50;60.70
38910;DHT22;24676;51.360;12.354;2024-01-30T10:24:36;10.60;60.70
38910;DHT22;24676;51.360;12.354;2024-01-30T10:27:25;10.70;60.10
38910;DHT22;24676;51.360;12.354;2024-01-30T10:30:09;10.60;60.30
38910;DHT22;24676;51.360;12.354;2024-01-30T10:32:53;10.70;60.40
38910;DHT22;24676;51.360;12.354;2024-01-30T10:35:38;10.70;60.30
38910;DHT22;24676;51.360;12.354;2024-01-30T10:38:22;10.70;60.50
38910;DHT22;24676;51.360;12.354;2024-01-30T10:41:07;10.70;60.90
38910;DHT22;24676;51.360;12.354;2024-01-30T10:44:02;10.80;61.00
38910;DHT22;24676;51.360;12.354;2024-01-30T10:46:47;10.90;61.10
38910;DHT22;24676;51.360;12.354;2024-01-30T10:49:34;10.90;61.20
38910;DHT22;24676;51.360;12.354;2024-01-30T10:52:20;10.90;61.30
38910;DHT22;24676;51.360;12.354;2024-01-30T10:55:04;10.90;61.70
38910;DHT22;24676;51.360;12.354;2024-01-30T10:57:51;10.90;62.00
38910;DHT22;24676;51.360;12.354;2024-01-30T11:00:35;10.80;62.60
38910;DHT22;24676;51.360;12.354;2024-01-30T11:03:20;10.80;63.10
38910;DHT22;24676;51.360;12.354;2024-01-30T11:06:05;10.80;63.50
38910;DHT22;24676;51.360;12.354;2024-01-30T11:09:01;10.70;63.70
38910;DHT22;24676;51.360;12.354;2024-01-30T11:11:57;10.80;63.90
38910;DHT22;24676;51.360;12.354;2024-01-30T11:14:45;10.80;64.20
38910;DHT22;24676;51.360;12.354;2024-01-30T11:17:39;10.80;64.60
38910;DHT22;24676;51.360;12.354;2024-01-30T11:20:30;10.90;64.80
38910;DHT22;24676;51.360;12.354;2024-01-30T11:23:21;11.00;64.50
38910;DHT22;24676;51.360;12.354;2024-01-30T11:26:06;11.10;64.30
38910;DHT22;24676;51.360;12.354;2024-01-30T11:28:52;11.20;64.40
38910;DHT22;24676;51.360;12.354;2024-01-30T11:31:36;11.30;64.50
38910;DHT22;24676;51.360;12.354;2024-01-30T11:34:21;11.40;64.50
38910;DHT22;24676;51.360;12.354;2024-01-30T11:37:09;11.40;64.60
38910;DHT22;24676;51.360;12.354;2024-01-30T11:39:54;11.60;64.70
38910;DHT22;24676;51.360;12.354;2024-01-30T11:42:38;11.60;64.20
38910;DHT22;24676;51.360;12.354;2024-01-30T11:45:23;11.60;63.90
38910;DHT22;24676;51.360;12.354;2024-01-30T11:48:07;11.60;64.50
38910;DHT22;24676;51.360;12.354;2024-01-30T11:50:54;11.60;64.90
38910;DHT22;24676;51.360;12.354;2024-01-30T11:53:38;11.70;65.20
38910;DHT22;24676;51.360;12.354;2024-01-30T11:56:23;11.80;65.30
38910;DHT22;24676;51.360;12.354;2024-01-30T11:59:08;12.10;64.30
38910;DHT22;24676;51.360;12.354;2024-01-30T12:01:52;12.80;62.90
38910;DHT22;24676;51.360;12.354;2024-01-30T12:04:36;13.50;60.10
38910;DHT22;24676;51.360;12.354;2024-01-30T12:07:20;13.90;58.30
38910;DHT22;24676;51.360;12.354;2024-01-30T12:10:04;14.40;57.30
38910;DHT22;24676;51.360;12.354;2024-01-30T12:12:50;14.50;57.00
38910;DHT22;24676;51.360;12.354;2024-01-30T12:15:34;15.00;56.10
38910;DHT22;24676;51.360;12.354;2024-01-30T12:18:18;15.40;54.90
38910;DHT22;24676;51.360;12.354;2024-01-30T12:21:02;15.30;55.00
38910;DHT22;24676;51.360;12.354;2024-01-30T12:23:46;15.20;54.70
38910;DHT22;24676;51.360;12.354;2024-01-30T12:26:31;14.90;55.10
38910;DHT22;24676;51.360;12.354;2024-01-30T12:29:15;14.70;56.30
38910;DHT22;24676;51.360;12.354;2024-01-30T12:31:59;14.70;57.10
38910;DHT22;24676;51.360;12.354;2024-01-30T12:34:43;14.70;57.10
38910;DHT22;24676;51.360;12.354;2024-01-30T12:37:29;14.70;57.30
38910;DHT22;24676;51.360;12.354;2024-01-30T12:40:14;14.50;58.00
38910;DHT22;24676;51.360;12.354;2024-01-30T12:42:58;14.40;59.10
38910;DHT22;24676;51.360;12.354;2024-01-30T12:45:42;14.60;59.20
38910;DHT22;24676;51.360;12.354;2024-01-30T12:48:26;14.60;59.70
38910;DHT22;24676;51.360;12.354;2024-01-30T12:51:13;14.70;59.20
38910;DHT22;24676;51.360;12.354;2024-01-30T12:53:57;14.70;59.20
38910;DHT22;24676;51.360;12.354;2024-01-30T12:56:42;14.50;59.60
38910;DHT22;24676;51.360;12.354;2024-01-30T12:59:26;14.40;60.00
38910;DHT22;24676;51.360;12.354;2024-01-30T13:02:11;14.30;60.60
38910;DHT22;24676;51.360;12.354;2024-01-30T13:04:55;14.30;61.50
38910;DHT22;24676;51.360;12.354;2024-01-30T13:07:40;14.40;61.20
38910;DHT22;24676;51.360;12.354;2024-01-30T13:10:24;14.40;61.80
38910;DHT22;24676;51.360;12.354;2024-01-30T13:13:08;14.50;61.60
38910;DHT22;24676;51.360;12.354;2024-01-30T13:15:53;14.50;61.50
38910;DHT22;24676;51.360;12.354;2024-01-30T13:18:37;14.30;61.70
38910;DHT22;24676;51.360;12.354;2024-01-30T13:21:21;14.10;62.50
38910;DHT22;24676;51.360;12.354;2024-01-30T13:24:06;13.80;62.90
38910;DHT22;24676;51.360;12.354;2024-01-30T13:26:50;13.60;64.30
38910;DHT22;24676;51.360;12.354;2024-01-30T13:29:34;13.50;64.50
38910;DHT22;24676;51.360;12.354;2024-01-30T13:32:18;13.40;65.50
38910;DHT22;24676;51.360;12.354;2024-01-30T13:35:02;13.30;66.20
38910;DHT22;24676;51.360;12.354;2024-01-30T13:37:47;13.20;66.70
38910;DHT22;24676;51.360;12.354;2024-01-30T13:40:32;13.00;67.30
38910;DHT22;24676;51.360;12.354;2024-01-30T13:43:16;12.90;68.40
38910;DHT22;24676;51.360;12.354;2024-01-30T13:46:01;12.90;68.90
38910;DHT22;24676;51.360;12.354;2024-01-30T13:48:45;12.80;69.00
38910;DHT22;24676;51.360;12.354;2024-01-30T13:51:29;12.60;70.00
38910;DHT22;24676;51.360;12.354;2024-01-30T13:54:14;12.50;70.70
38910;DHT22;24676;51.360;12.354;2024-01-30T13:56:59;12.50;71.20
38910;DHT22;24676;51.360;12.354;2024-01-30T13:59:43;12.40;72.30
38910;DHT22;24676;51.360;12.354;2024-01-30T14:02:27;12.40;73.00
38910;DHT22;24676;51.360;12.354;2024-01-30T14:05:11;12.30;74.10
38910;DHT22;24676;51.360;12.354;2024-01-30T14:07:56;12.30;74.90
38910;DHT22;24676;51.360;12.354;2024-01-30T14:10:41;12.30;75.80
38910;DHT22;24676;51.360;12.354;2024-01-30T14:13:25;12.20;76.50
38910;DHT22;24676;51.360;12.354;2024-01-30T14:16:09;12.20;77.10
38910;DHT22;24676;51.360;12.354;2024-01-30T14:18:53;12.20;78.40
38910;DHT22;24676;51.360;12.354;2024-01-30T14:21:38;12.10;78.90
38910;DHT22;24676;51.360;12.354;2024-01-30T14:24:22;12.10;79.90
38910;DHT22;24676;51.360;12.354;2024-01-30T14:27:06;12.00;81.00
38910;DHT22;24676;51.360;12.354;2024-01-30T14:29:51;12.00;82.70
38910;DHT22;24676;51.360;12.354;2024-01-30T14:32:35;11.90;84.30
38910;DHT22;24676;51.360;12.354;2024-01-30T14:35:20;11.90;86.10
38910;DHT22;24676;51.360;12.354;2024-01-30T14:38:04;11.90;87.60
38910;DHT22;24676;51.360;12.354;2024-01-30T14:40:49;11.80;88.40
38910;DHT22;24676;51.360;12.354;2024-01-30T14:43:33;11.80;90.00
38910;DHT22;24676;51.360;12.354;2024-01-30T14:46:17;11.70;91.90
38910;DHT22;24676;51.360;12.354;2024-01-30T14:49:02;11.70;92.60
38910;DHT22;24676;51.360;12.354;2024-01-30T14:51:49;11.60;92.90
38910;DHT22;24676;51.360;12.354;2024-01-30T14:54:33;11.60;93.90
38910;DHT22;24676;51.360;12.354;2024-01-30T14:57:17;11.50;93.70
38910;DHT22;24676;51.360;12.354;2024-01-30T15:00:01;11.50;94.50
38910;DHT22;24676;51.360;12.354;2024-01-30T15:02:46;11.50;95.20
38910;DHT22;24676;51.360;12.354;2024-01-30T15:05:30;11.40;96.30
38910;DHT22;24676;51.360;12.354;2024-01-30T15:08:14;11.30;97.30
38910;DHT22;24676;51.360;12.354;2024-01-30T15:10:58;11.30;98.30
38910;DHT22;24676;51.360;12.354;2024-01-30T15:13:43;11.20;98.80
38910;DHT22;24676;51.360;12.354;2024-01-30T15:16:27;11.20;99.70
38910;DHT22;24676;51.360;12.354;2024-01-30T15:19:12;11.10;99.90
38910;DHT22;24676;51.360;12.354;2024-01-30T15:21:56;11.10;99.90
38910;DHT22;24676;51.360;12.354;2024-01-30T15:24:40;11.00;99.90
38910;DHT22;24676;51.360;12.354;2024-01-30T15:27:24;10.90;99.90
38910;DHT22;24676;51.360;12.354;2024-01-30T15:30:09;10.90;99.90
38910;DHT22;24676;51.360;12.354;2024-01-30T15:32:55;10.80;99.90
38910;DHT22;24676;51.360;12.354;2024-01-30T15:35:39;10.80;99.90
38910;DHT22;24676;51.360;12.354;2024-01-30T15:38:23;10.70;99.90
38910;DHT22;24676;51.360;12.354;2024-01-30T15:41:07;10.70;99.90
38910;DHT22;24676;51.360;12.354;2024-01-30T15:43:52;10.60;99.90
38910;DHT22;24676;51.360;12.354;2024-01-30T15:46:36;10.50;99.90
38910;DHT22;24676;51.360;12.354;2024-01-30T15:49:20;10.40;99.90
38910;DHT22;24676;51.360;12.354;2024-01-30T15:52:04;10.30;99.90
38910;DHT22;24676;51.360;12.354;2024-01-30T15:54:48;10.10;99.90
38910;DHT22;24676;51.360;12.354;2024-01-30T15:57:33;10.00;99.90
38910;DHT22;24676;51.360;12.354;2024-01-30T16:00:17;10.00;99.90
38910;DHT22;24676;51.360;12.354;2024-01-30T16:03:01;9.90;99.90
38910;DHT22;24676;51.360;12.354;2024-01-30T16:05:46;9.80;99.90
38910;DHT22;24676;51.360;12.354;2024-01-30T16:08:30;9.80;99.90
38910;DHT22;24676;51.360;12.354;2024-01-30T16:11:16;9.80;99.90
38910;DHT22;24676;51.360;12.354;2024-01-30T16:14:00;9.70;99.90
38910;DHT22;24676;51.360;12.354;2024-01-30T16:16:44;9.80;99.90
38910;DHT22;24676;51.360;12.354;2024-01-30T16:19:28;9.80;99.90
38910;DHT22;24676;51.360;12.354;2024-01-30T16:22:12;9.70;99.90
38910;DHT22;24676;51.360;12.354;2024-01-30T16:24:57;9.60;99.90
38910;DHT22;24676;51.360;12.354;2024-01-30T16:27:41;9.60;99.90
38910;DHT22;24676;51.360;12.354;2024-01-30T16:30:25;9.50;99.90
38910;DHT22;24676;51.360;12.354;2024-01-30T16:33:10;9.40;99.90
38910;DHT22;24676;51.360;12.354;2024-01-30T16:35:54;9.20;99.90
38910;DHT22;24676;51.360;12.354;2024-01-30T16:38:38;9.10;99.90
38910;DHT22;24676;51.360;12.354;2024-01-30T16:41:22;9.00;99.90
38910;DHT22;24676;51.360;12.354;2024-01-30T16:44:07;8.90;99.90
38910;DHT22;24676;51.360;12.354;2024-01-30T16:46:51;8.90;99.90
38910;DHT22;24676;51.360;12.354;2024-01-30T16:49:35;8.80;99.90
38910;DHT22;24676;51.360;12.354;2024-01-30T16:52:19;8.80;99.90
38910;DHT22;24676;51.360;12.354;2024-01-30T16:55:04;8.80;99.90
38910;DHT22;24676;51.360;12.354;2024-01-30T16:57:48;8.80;99.90
38910;DHT22;24676;51.360;12.354;2024-01-30T17:00:32;8.80;99.90
38910;DHT22;24676;51.360;12.354;2024-01-30T17:03:17;8.90;99.90
38910;DHT22;24676;51.360;12.354;2024-01-30T17:06:01;8.90;99.90
38910;DHT22;24676;51.360;12.354;2024-01-30T17:08:49;8.80;99.90
38910;DHT22;24676;51.360;12.354;2024-01-30T17:11:33;8.70;99.90
38910;DHT22;24676;51.360;12.354;2024-01-30T17:14:17;8.70;99.90